createdAt,value
2018-12-27T00:01:59.863Z,95.10
2018-12-27T00:04:28.425Z,95.20
2018-12-27T00:06:56.988Z,95.10
2018-12-27T00:09:25.544Z,95.30
2018-12-27T00:11:54.104Z,95.30
2018-12-27T00:14:22.682Z,95.30
2018-12-27T00:16:51.240Z,95.20
2018-12-27T00:19:19.817Z,95.20
2018-12-27T00:21:48.375Z,95.10
2018-12-27T00:24:16.986Z,95.10
2018-12-27T00:26:45.548Z,95.20
2018-12-27T00:29:14.142Z,95.20
2018-12-27T00:31:43.059Z,95.20
2018-12-27T00:34:11.964Z,95.00
2018-12-27T00:36:42.409Z,95.20
2018-12-27T00:39:11.326Z,95.20
2018-12-27T00:41:40.237Z,95.10
2018-12-27T00:44:09.159Z,95.20
2018-12-27T00:46:38.056Z,95.20
2018-12-27T00:49:07.024Z,95.10
2018-12-27T00:51:35.931Z,95.00
2018-12-27T00:54:04.851Z,95.10
2018-12-27T00:56:34.716Z,95.20
2018-12-27T00:59:03.627Z,95.20
2018-12-27T01:01:33.219Z,95.60
2018-12-27T01:04:02.125Z,95.20
2018-12-27T01:06:31.028Z,95.20
2018-12-27T01:08:59.940Z,95.20
2018-12-27T01:11:28.854Z,95.20
2018-12-27T01:13:57.747Z,95.30
2018-12-27T01:16:26.673Z,95.20
2018-12-27T01:18:55.588Z,95.10
2018-12-27T01:21:24.492Z,95.10
2018-12-27T01:23:53.392Z,95.10
2018-12-27T01:26:22.323Z,95.10
2018-12-27T01:32:25.478Z,94.90
2018-12-27T01:38:22.965Z,94.90
2018-12-27T01:40:51.873Z,94.80
2018-12-27T01:43:20.776Z,94.80
2018-12-27T01:45:49.684Z,94.90
2018-12-27T01:48:18.594Z,95.00
2018-12-27T01:50:47.518Z,95.10
2018-12-27T01:53:16.393Z,94.90
2018-12-27T01:55:45.318Z,94.80
2018-12-27T01:58:14.219Z,94.80
2018-12-27T02:00:43.475Z,94.80
2018-12-27T02:03:12.402Z,94.90
2018-12-27T02:05:41.346Z,94.90
2018-12-27T02:08:10.243Z,95.00
2018-12-27T02:10:39.147Z,94.90
2018-12-27T02:13:08.052Z,94.90
2018-12-27T02:15:36.970Z,94.80
2018-12-27T02:18:05.893Z,94.70
2018-12-27T02:20:34.792Z,94.70
2018-12-27T02:23:03.711Z,94.60
2018-12-27T02:25:32.633Z,94.60
2018-12-27T02:28:01.565Z,94.70
2018-12-27T02:30:30.465Z,94.70
2018-12-27T02:32:59.376Z,94.70
2018-12-27T02:35:28.281Z,94.70
2018-12-27T02:37:57.185Z,94.80
2018-12-27T02:40:26.102Z,94.90
2018-12-27T02:42:55.020Z,95.00
2018-12-27T02:45:23.911Z,95.10
2018-12-27T02:47:52.819Z,95.10
2018-12-27T02:50:22.321Z,95.00
2018-12-27T02:52:51.221Z,95.00
2018-12-27T02:55:20.116Z,94.90
2018-12-27T02:57:49.020Z,95.00
2018-12-27T03:00:17.920Z,95.00
2018-12-27T03:02:46.823Z,95.00
2018-12-27T03:05:15.757Z,95.00
2018-12-27T03:07:44.671Z,95.00
2018-12-27T03:10:13.565Z,95.20
2018-12-27T03:12:42.479Z,95.10
2018-12-27T03:15:11.392Z,95.00
2018-12-27T03:17:40.292Z,95.00
2018-12-27T03:20:09.214Z,94.90
2018-12-27T03:22:38.117Z,94.80
2018-12-27T03:25:07.019Z,94.70
2018-12-27T03:27:35.926Z,94.70
2018-12-27T03:30:04.821Z,94.60
2018-12-27T03:32:33.745Z,94.50
2018-12-27T03:35:02.732Z,94.50
2018-12-27T03:37:31.926Z,94.60
2018-12-27T03:40:00.843Z,94.50
2018-12-27T03:42:29.762Z,94.40
2018-12-27T03:44:58.665Z,94.30
2018-12-27T03:47:27.564Z,94.30
2018-12-27T03:49:56.481Z,94.20
2018-12-27T03:52:25.404Z,94.20
2018-12-27T03:54:54.305Z,94.20
2018-12-27T03:57:23.220Z,94.30
2018-12-27T03:59:52.134Z,94.40
2018-12-27T04:02:21.063Z,94.40
2018-12-27T04:04:49.994Z,94.40
2018-12-27T04:07:20.388Z,94.40
2018-12-27T04:09:49.319Z,94.50
2018-12-27T04:12:18.352Z,94.40
2018-12-27T04:14:47.256Z,94.40
2018-12-27T04:17:15.817Z,94.30
2018-12-27T04:19:44.384Z,94.40
2018-12-27T04:22:12.944Z,94.40
2018-12-27T04:24:41.516Z,94.50
2018-12-27T04:27:10.092Z,94.50
2018-12-27T04:29:38.662Z,94.60
2018-12-27T04:32:07.258Z,94.60
2018-12-27T04:34:35.896Z,94.60
2018-12-27T04:37:04.536Z,94.50
2018-12-27T04:39:33.096Z,94.50
2018-12-27T04:42:01.676Z,94.50
2018-12-27T04:44:30.224Z,94.50
2018-12-27T04:46:58.788Z,94.50
2018-12-27T04:49:27.353Z,94.50
2018-12-27T04:51:55.935Z,94.40
2018-12-27T04:54:24.537Z,94.50
2018-12-27T04:56:54.227Z,94.40
2018-12-27T04:59:22.801Z,94.30
2018-12-27T05:01:51.382Z,94.30
2018-12-27T05:04:19.930Z,94.30
2018-12-27T05:06:48.513Z,94.20
2018-12-27T05:09:17.065Z,94.20
2018-12-27T05:11:45.653Z,94.20
2018-12-27T05:14:14.219Z,94.20
2018-12-27T05:16:42.806Z,94.20
2018-12-27T05:19:11.384Z,94.30
2018-12-27T05:21:39.966Z,94.30
2018-12-27T05:24:08.554Z,94.30
2018-12-27T05:26:37.138Z,94.30
2018-12-27T05:29:05.707Z,94.30
2018-12-27T05:31:34.310Z,94.30
2018-12-27T05:34:02.868Z,94.50
2018-12-27T05:36:31.453Z,94.60
2018-12-27T05:39:00.023Z,94.60
2018-12-27T05:41:28.594Z,94.60
2018-12-27T05:43:57.182Z,94.60
2018-12-27T05:46:25.731Z,94.60
2018-12-27T05:48:54.302Z,94.50
2018-12-27T05:51:22.886Z,94.50
2018-12-27T05:53:51.461Z,94.40
2018-12-27T05:56:20.034Z,94.40
2018-12-27T05:58:48.596Z,94.50
2018-12-27T06:01:17.148Z,94.70
2018-12-27T06:03:46.010Z,94.40
2018-12-27T06:06:14.583Z,94.40
2018-12-27T06:08:43.156Z,94.50
2018-12-27T06:11:11.712Z,94.50
2018-12-27T06:13:40.281Z,94.50
2018-12-27T06:16:08.864Z,94.50
2018-12-27T06:18:37.444Z,94.50
2018-12-27T06:21:06.003Z,94.50
2018-12-27T06:23:34.572Z,94.50
2018-12-27T06:26:04.069Z,94.40
2018-12-27T06:28:32.659Z,94.80
2018-12-27T06:31:01.231Z,94.80
2018-12-27T06:33:29.821Z,94.70
2018-12-27T06:35:58.411Z,94.70
2018-12-27T06:38:27.010Z,94.60
2018-12-27T06:40:55.580Z,94.80
2018-12-27T06:43:24.160Z,94.70
2018-12-27T06:45:52.745Z,94.70
2018-12-27T06:48:22.052Z,94.60
2018-12-27T06:50:50.627Z,94.60
2018-12-27T06:53:19.220Z,94.60
2018-12-27T06:55:47.817Z,94.60
2018-12-27T06:58:16.402Z,94.60
2018-12-27T07:00:44.987Z,94.80
2018-12-27T07:03:13.570Z,95.30
2018-12-27T07:05:51.129Z,95.10
2018-12-27T07:08:19.654Z,95.20
2018-12-27T07:10:49.935Z,95.20
2018-12-27T07:13:18.768Z,95.20
2018-12-27T07:15:48.074Z,95.30
2018-12-27T07:18:17.350Z,95.50
2018-12-27T07:20:48.369Z,95.20
2018-12-27T07:23:17.239Z,95.60
2018-12-27T07:25:45.891Z,95.80
2018-12-27T07:28:15.181Z,95.60
2018-12-27T07:30:44.383Z,95.50
2018-12-27T07:33:13.111Z,95.30
2018-12-27T07:35:42.105Z,95.20
2018-12-27T07:38:10.893Z,95.10
2018-12-27T07:40:40.998Z,95.00
2018-12-27T07:43:09.560Z,94.90
2018-12-27T07:45:38.138Z,94.70
2018-12-27T07:48:09.649Z,94.90
2018-12-27T07:50:38.431Z,95.30
2018-12-27T07:53:06.998Z,95.60
2018-12-27T07:55:35.813Z,95.90
2018-12-27T07:58:10.609Z,95.70
2018-12-27T08:00:39.328Z,95.40
2018-12-27T08:03:08.067Z,95.50
2018-12-27T08:05:36.783Z,95.60
2018-12-27T08:08:05.520Z,95.60
2018-12-27T08:10:34.173Z,95.60
2018-12-27T08:13:02.830Z,95.60
2018-12-27T08:15:31.479Z,95.60
2018-12-27T08:18:00.557Z,95.60
2018-12-27T08:20:36.314Z,95.60
2018-12-27T08:23:04.928Z,95.90
2018-12-27T08:25:33.510Z,95.50
2018-12-27T08:28:02.340Z,95.50
2018-12-27T08:30:31.224Z,95.50
2018-12-27T08:33:00.043Z,95.40
2018-12-27T08:35:30.108Z,95.40
2018-12-27T08:37:58.922Z,95.50
2018-12-27T08:40:27.801Z,95.30
2018-12-27T08:43:01.079Z,95.30
2018-12-27T08:45:30.956Z,95.20
2018-12-27T08:47:59.609Z,95.30
2018-12-27T08:50:30.294Z,94.80
2018-12-27T08:52:59.121Z,95.10
2018-12-27T08:55:30.960Z,95.00
2018-12-27T08:57:59.534Z,95.10
2018-12-27T09:00:28.160Z,95.20
2018-12-27T09:02:56.728Z,95.20
2018-12-27T09:05:26.533Z,95.30
2018-12-27T09:07:55.192Z,95.20
2018-12-27T09:10:23.774Z,95.10
2018-12-27T09:12:52.367Z,94.90
2018-12-27T09:15:20.941Z,95.30
2018-12-27T09:17:49.519Z,94.90
2018-12-27T09:20:18.102Z,94.90
2018-12-27T09:22:46.697Z,95.10
2018-12-27T09:25:15.302Z,95.00
2018-12-27T09:27:43.922Z,94.90
2018-12-27T09:30:12.476Z,94.80
2018-12-27T09:32:41.268Z,94.70
2018-12-27T09:35:09.935Z,94.60
2018-12-27T09:37:38.621Z,94.90
2018-12-27T09:40:07.204Z,95.10
2018-12-27T09:42:36.205Z,94.90
2018-12-27T09:45:05.300Z,94.70
2018-12-27T09:47:33.935Z,94.70
2018-12-27T09:50:02.519Z,94.60
2018-12-27T09:52:31.170Z,94.60
2018-12-27T09:54:59.736Z,94.70
2018-12-27T09:57:28.317Z,94.50
2018-12-27T09:59:56.909Z,94.40
2018-12-27T10:02:25.476Z,94.30
2018-12-27T10:04:54.078Z,93.90
2018-12-27T10:07:22.645Z,94.00
2018-12-27T10:09:51.352Z,93.70
2018-12-27T10:12:19.949Z,93.70
2018-12-27T10:14:55.464Z,93.50
2018-12-27T10:17:24.032Z,93.50
2018-12-27T10:19:52.668Z,93.20
2018-12-27T10:22:22.350Z,93.30
2018-12-27T10:24:50.917Z,93.20
2018-12-27T10:27:19.507Z,93.30
2018-12-27T10:29:48.091Z,93.40
2018-12-27T10:32:17.000Z,93.80
2018-12-27T10:34:45.604Z,93.90
2018-12-27T10:37:14.424Z,94.00
2018-12-27T10:39:43.005Z,94.20
2018-12-27T10:42:11.588Z,94.30
2018-12-27T10:44:40.216Z,94.00
2018-12-27T10:47:08.797Z,93.60
2018-12-27T10:49:37.452Z,93.70
2018-12-27T10:52:06.022Z,93.50
2018-12-27T10:54:35.058Z,93.50
2018-12-27T10:57:03.662Z,93.90
2018-12-27T10:59:32.228Z,93.90
2018-12-27T11:02:00.806Z,94.40
2018-12-27T11:04:29.372Z,93.90
2018-12-27T11:06:59.222Z,93.90
2018-12-27T11:09:27.796Z,93.80
2018-12-27T11:11:56.382Z,93.90
2018-12-27T11:14:25.055Z,94.10
2018-12-27T11:16:53.680Z,94.00
2018-12-27T11:19:22.260Z,93.50
2018-12-27T11:21:50.824Z,93.50
2018-12-27T11:24:19.406Z,93.60
2018-12-27T11:26:47.973Z,93.20
2018-12-27T11:29:16.532Z,93.10
2018-12-27T11:31:45.142Z,93.10
2018-12-27T11:34:13.700Z,93.20
2018-12-27T11:36:42.252Z,93.00
2018-12-27T11:39:20.104Z,92.90
2018-12-27T11:41:48.708Z,92.90
2018-12-27T11:44:17.303Z,93.30
2018-12-27T11:46:45.885Z,93.40
2018-12-27T11:49:15.289Z,93.60
2018-12-27T11:51:43.880Z,94.20
2018-12-27T11:54:12.582Z,93.40
2018-12-27T11:56:41.160Z,93.30
2018-12-27T11:59:18.752Z,93.40
2018-12-27T12:01:49.563Z,93.50
2018-12-27T12:04:18.143Z,93.00
2018-12-27T12:06:46.768Z,92.90
2018-12-27T12:09:15.374Z,92.80
2018-12-27T12:11:43.937Z,92.80
2018-12-27T12:14:12.506Z,92.90
2018-12-27T12:16:41.098Z,92.70
2018-12-27T12:19:11.718Z,92.50
2018-12-27T12:21:41.088Z,92.90
2018-12-27T12:24:10.805Z,92.60
2018-12-27T12:26:40.386Z,92.50
2018-12-27T12:29:10.244Z,92.80
2018-12-27T12:31:41.051Z,92.60
2018-12-27T12:34:11.654Z,92.80
2018-12-27T12:36:41.633Z,92.70
2018-12-27T12:39:11.433Z,92.70
2018-12-27T12:41:50.359Z,92.70
2018-12-27T12:44:20.153Z,93.10
2018-12-27T12:46:49.863Z,93.10
2018-12-27T12:49:19.699Z,92.80
2018-12-27T12:51:49.592Z,92.60
2018-12-27T12:54:18.748Z,92.40
2018-12-27T12:56:48.236Z,92.00
2018-12-27T12:59:17.988Z,91.90
2018-12-27T13:01:49.799Z,91.50
2018-12-27T13:04:18.387Z,91.50
2018-12-27T13:06:46.967Z,91.70
2018-12-27T13:09:15.545Z,91.40
2018-12-27T13:11:44.130Z,91.40
2018-12-27T13:14:13.234Z,91.30
2018-12-27T13:16:41.784Z,91.40
2018-12-27T13:19:10.348Z,91.50
2018-12-27T13:21:38.908Z,91.40
2018-12-27T13:24:07.476Z,91.50
2018-12-27T13:26:36.042Z,91.40
2018-12-27T13:29:05.900Z,91.60
2018-12-27T13:31:34.465Z,91.60
2018-12-27T13:34:03.050Z,91.80
2018-12-27T13:36:32.002Z,91.90
2018-12-27T13:39:00.592Z,91.70
2018-12-27T13:41:29.932Z,92.40
2018-12-27T13:43:58.540Z,92.80
2018-12-27T13:46:27.092Z,92.70
2018-12-27T13:48:55.670Z,93.00
2018-12-27T13:51:24.459Z,93.10
2018-12-27T13:53:53.024Z,93.10
2018-12-27T13:56:21.592Z,93.20
2018-12-27T13:58:50.174Z,93.60
2018-12-27T14:01:18.743Z,93.40
2018-12-27T14:03:47.308Z,93.50
2018-12-27T14:06:15.894Z,93.40
2018-12-27T14:08:44.462Z,93.70
2018-12-27T14:11:13.042Z,93.70
2018-12-27T14:13:41.719Z,93.60
2018-12-27T14:16:10.744Z,93.80
2018-12-27T14:18:39.309Z,93.90
2018-12-27T14:21:08.054Z,93.90
2018-12-27T14:23:40.763Z,94.10
2018-12-27T14:26:10.271Z,94.00
2018-12-27T14:28:38.834Z,94.10
2018-12-27T14:31:07.425Z,93.70
2018-12-27T14:33:36.004Z,93.80
2018-12-27T14:36:04.593Z,93.70
2018-12-27T14:38:33.161Z,93.70
2018-12-27T14:41:01.755Z,93.60
2018-12-27T14:43:30.362Z,93.60
2018-12-27T14:45:58.942Z,93.40
2018-12-27T14:48:29.392Z,93.40
2018-12-27T14:50:57.950Z,93.30
2018-12-27T14:53:26.535Z,93.60
2018-12-27T14:55:55.144Z,93.70
2018-12-27T14:58:23.723Z,93.80
2018-12-27T15:00:52.323Z,93.70
2018-12-27T15:03:28.254Z,93.90
2018-12-27T15:05:56.829Z,93.70
2018-12-27T15:08:27.448Z,93.90
2018-12-27T15:10:56.028Z,93.90
2018-12-27T15:13:24.595Z,93.70
2018-12-27T15:15:55.179Z,93.50
2018-12-27T15:18:24.069Z,93.30
2018-12-27T15:20:53.408Z,93.10
2018-12-27T15:23:22.004Z,93.30
2018-12-27T15:25:50.605Z,93.30
2018-12-27T15:28:19.177Z,93.20
2018-12-27T15:30:49.997Z,93.20
2018-12-27T15:33:18.552Z,93.00
2018-12-27T15:35:47.214Z,93.10
2018-12-27T15:38:16.029Z,93.10
2018-12-27T15:40:44.610Z,93.10
2018-12-27T15:43:17.070Z,93.00
2018-12-27T15:45:45.640Z,92.90
2018-12-27T15:48:14.264Z,93.00
2018-12-27T15:50:42.820Z,93.10
2018-12-27T15:53:11.444Z,93.00
2018-12-27T15:55:40.096Z,93.30
2018-12-27T15:58:08.927Z,93.30
2018-12-27T16:00:39.503Z,93.50
2018-12-27T16:03:08.177Z,93.50
2018-12-27T16:05:36.908Z,93.70
2018-12-27T16:08:08.716Z,93.60
2018-12-27T16:10:43.366Z,93.70
2018-12-27T16:13:11.954Z,93.60
2018-12-27T16:15:40.527Z,93.50
2018-12-27T16:18:09.108Z,93.40
2018-12-27T16:20:38.214Z,93.40
2018-12-27T16:23:06.790Z,93.50
2018-12-27T16:25:35.355Z,93.50
2018-12-27T16:28:03.940Z,93.50
2018-12-27T16:30:32.542Z,93.70
2018-12-27T16:33:01.136Z,93.40
2018-12-27T16:35:29.696Z,93.40
2018-12-27T16:37:58.324Z,93.50
2018-12-27T16:40:26.911Z,93.80
2018-12-27T16:42:56.072Z,93.50
2018-12-27T16:45:30.712Z,93.50
2018-12-27T16:48:01.029Z,93.60
2018-12-27T16:50:29.623Z,93.60
2018-12-27T16:52:58.205Z,93.60
2018-12-27T16:55:26.789Z,93.60
2018-12-27T16:57:55.360Z,93.80
2018-12-27T17:00:23.947Z,93.50
2018-12-27T17:02:52.513Z,93.50
2018-12-27T17:05:21.126Z,93.50
2018-12-27T17:07:49.682Z,93.50
2018-12-27T17:10:18.315Z,93.50
2018-12-27T17:12:46.882Z,93.40
2018-12-27T17:15:15.448Z,93.40
2018-12-27T17:17:44.012Z,93.40
2018-12-27T17:20:12.588Z,93.40
2018-12-27T17:22:41.155Z,93.50
2018-12-27T17:25:09.801Z,93.50
2018-12-27T17:27:38.589Z,93.60
2018-12-27T17:30:07.509Z,93.60
2018-12-27T17:32:36.116Z,93.60
2018-12-27T17:35:04.993Z,93.50
2018-12-27T17:37:33.571Z,93.40
2018-12-27T17:40:02.124Z,93.60
2018-12-27T17:42:30.696Z,93.60
2018-12-27T17:44:59.257Z,93.50
2018-12-27T17:47:27.849Z,93.40
2018-12-27T17:49:56.398Z,93.50
2018-12-27T17:52:30.232Z,93.50
2018-12-27T17:54:55.392Z,93.40
2018-12-27T17:57:23.971Z,93.40
2018-12-27T17:59:52.507Z,93.30
2018-12-27T18:02:27.597Z,93.30
2018-12-27T18:04:56.167Z,93.40
2018-12-27T18:07:30.513Z,93.40
2018-12-27T18:09:56.143Z,93.50
2018-12-27T18:12:24.713Z,93.60
2018-12-27T18:15:00.025Z,93.50
2018-12-27T18:17:30.740Z,93.60
2018-12-27T18:19:59.298Z,93.50
2018-12-27T18:22:30.253Z,93.50
2018-12-27T18:24:59.629Z,93.50
2018-12-27T18:27:29.230Z,93.80
2018-12-27T18:29:57.782Z,93.50
2018-12-27T18:32:26.352Z,93.40
2018-12-27T18:34:58.291Z,93.40
2018-12-27T18:37:37.674Z,93.40
2018-12-27T18:40:03.163Z,93.40
2018-12-27T18:42:31.750Z,93.40
2018-12-27T18:45:00.345Z,93.40
2018-12-27T18:47:29.103Z,93.30
2018-12-27T18:49:57.678Z,93.50
2018-12-27T18:52:26.379Z,93.50
2018-12-27T18:54:54.945Z,93.60
2018-12-27T18:57:29.381Z,93.50
2018-12-27T18:59:57.966Z,93.80
2018-12-27T19:02:26.544Z,93.40
2018-12-27T19:04:55.124Z,93.50
2018-12-27T19:07:23.728Z,93.40
2018-12-27T19:09:52.302Z,93.40
2018-12-27T19:12:57.029Z,93.40
2018-12-27T19:15:27.740Z,93.40
2018-12-27T19:18:04.201Z,93.40
2018-12-27T19:20:33.708Z,93.40
2018-12-27T19:23:10.176Z,93.30
2018-12-27T19:25:38.761Z,93.40
2018-12-27T19:28:07.326Z,93.50
2018-12-27T19:30:38.140Z,93.60
2018-12-27T19:33:06.970Z,93.60
2018-12-27T19:35:35.558Z,93.60
2018-12-27T19:38:04.295Z,93.60
2018-12-27T19:40:39.575Z,93.70
2018-12-27T19:43:08.156Z,93.70
2018-12-27T19:45:36.732Z,93.60
2018-12-27T19:48:05.300Z,93.50
2018-12-27T19:50:34.074Z,93.50
2018-12-27T19:53:02.760Z,93.50
2018-12-27T19:55:35.523Z,93.60
2018-12-27T19:58:04.085Z,93.60
2018-12-27T20:00:32.652Z,93.50
2018-12-27T20:03:01.228Z,93.50
2018-12-27T20:05:29.856Z,93.50
2018-12-27T20:07:59.451Z,93.40
2018-12-27T20:10:29.292Z,93.60
2018-12-27T20:12:57.911Z,93.50
2018-12-27T20:15:26.483Z,93.50
2018-12-27T20:17:55.087Z,93.50
2018-12-27T20:20:23.661Z,93.50
2018-12-27T20:22:52.230Z,93.50
2018-12-27T20:25:20.800Z,93.40
2018-12-27T20:27:49.391Z,93.40
2018-12-27T20:30:18.028Z,93.30
2018-12-27T20:32:47.256Z,93.30
2018-12-27T20:35:15.970Z,93.40
2018-12-27T20:37:44.558Z,93.50
2018-12-27T20:40:13.137Z,93.40
2018-12-27T20:42:41.702Z,93.70
2018-12-27T20:45:10.316Z,93.70
2018-12-27T20:47:38.978Z,93.60
2018-12-27T20:50:07.820Z,93.50
2018-12-27T20:52:37.574Z,93.70
2018-12-27T20:55:07.093Z,93.30
2018-12-27T20:57:35.648Z,93.40
2018-12-27T21:00:04.397Z,93.40
2018-12-27T21:02:32.973Z,93.30
2018-12-27T21:05:01.526Z,93.20
2018-12-27T21:07:30.262Z,93.30
2018-12-27T21:09:58.900Z,93.20
2018-12-27T21:12:27.468Z,93.20
2018-12-27T21:14:56.042Z,93.20
2018-12-27T21:17:25.059Z,93.30
2018-12-27T21:19:53.628Z,93.50
2018-12-27T21:22:22.279Z,93.60
2018-12-27T21:24:50.842Z,93.50
2018-12-27T21:27:19.675Z,93.50
2018-12-27T21:29:48.247Z,93.40
2018-12-27T21:32:16.860Z,93.40
2018-12-27T21:34:45.449Z,93.40
2018-12-27T21:37:14.048Z,93.30
2018-12-27T21:39:42.655Z,93.20
2018-12-27T21:42:11.312Z,93.30
2018-12-27T21:44:39.909Z,93.70
2018-12-27T21:47:08.492Z,93.50
2018-12-27T21:49:37.065Z,93.50
2018-12-27T21:52:05.637Z,93.50
2018-12-27T21:54:34.206Z,93.40
2018-12-27T21:57:02.783Z,93.30
2018-12-27T21:59:31.361Z,93.30
2018-12-27T22:02:02.824Z,93.30
2018-12-27T22:04:31.473Z,93.40
2018-12-27T22:07:00.058Z,93.40
2018-12-27T22:09:28.659Z,93.30
2018-12-27T22:11:58.518Z,93.30
2018-12-27T22:14:27.108Z,93.30
2018-12-27T22:16:55.675Z,93.60
2018-12-27T22:19:24.255Z,93.50
2018-12-27T22:21:52.812Z,93.50
2018-12-27T22:24:21.397Z,93.40
2018-12-27T22:26:49.968Z,93.30
2018-12-27T22:29:19.214Z,93.30
2018-12-27T22:31:47.781Z,93.30
2018-12-27T22:34:16.363Z,93.60
2018-12-27T22:36:44.913Z,93.70
2018-12-27T22:39:13.494Z,94.00
2018-12-27T22:41:42.045Z,94.20
2018-12-27T22:44:10.623Z,94.20
2018-12-27T22:46:39.199Z,94.40
2018-12-27T22:49:07.770Z,94.20
2018-12-27T22:51:36.964Z,94.00
2018-12-27T22:54:05.601Z,94.10
2018-12-27T22:56:34.182Z,94.00
2018-12-27T22:59:02.765Z,93.90
2018-12-27T23:01:31.304Z,94.00
2018-12-27T23:03:59.928Z,94.20
2018-12-27T23:06:28.503Z,94.30
2018-12-27T23:08:57.072Z,94.50
2018-12-27T23:11:25.680Z,94.40
2018-12-27T23:13:55.058Z,94.50
2018-12-27T23:16:23.638Z,94.40
2018-12-27T23:18:52.200Z,94.30
2018-12-27T23:21:20.782Z,94.10
2018-12-27T23:23:49.351Z,94.20
2018-12-27T23:26:21.280Z,94.20
2018-12-27T23:28:49.840Z,94.30
2018-12-27T23:31:18.404Z,94.50
2018-12-27T23:33:46.982Z,94.60
2018-12-27T23:36:15.553Z,94.70
2018-12-27T23:38:50.089Z,94.70
2018-12-27T23:41:16.124Z,94.50
2018-12-27T23:43:44.722Z,94.20
2018-12-27T23:46:13.289Z,94.30
2018-12-27T23:48:41.859Z,94.00
2018-12-27T23:51:10.423Z,94.10
2018-12-27T23:53:38.996Z,94.10
2018-12-27T23:56:07.565Z,94.30
2018-12-27T23:58:36.137Z,94.30
